Port Rowan, Canada
Current Conditions -  °F | °C
As of 10:51 PM on Saturday 22 Nov 2014 (Local Time) from KERI Reporting Station
Overcast Overcast  
Wind Chill: 41°   Ceiling: 4500
Heat Index: 48°   Visibility: 10mi
Dew Point: 32°   Wind: 18mph
Humidity: 54%   Direction: 210°SSW
Pressure: 30.01"   Gusts: 31mph
Location:  42.63°N, 80.45°W
Report Text: KERI 230351Z 21016G27KT 10SM OVC045 09/00 A3001 RMK AO2 PK WND 20031/0321 SLP169 T00890000
Loading
Personal Weather Stations






























Interactive Weather Map New forecast layout! Learn more

10-Day Weather Forecast

Advertisements
Track Severe Weather on mobile